Thunder radar more information blitzortung!


Radar de pluja more information rain snow radar


Visita la nostra xarxa de llocs de meteo:

Template documentation
and downloads

And another site



No particular awareness of the weather is required.    There are no Weather-warnings

Pagina Historial Weather Underground text

Diari Resum January 16, 2018 Unitats:  Tant    Imperial   Mètric
« Previous Dia
SegĂźent Dia »
Diari Setmana Mensual Anual Personalitzada
  Maxima: Minima: Media:
Temperatura: TemperatureC °F /  -17.8 °C 6.7 °F /  -14.1 °C 11.5 °F /  -11.4 °C
Punt de rosada: DewpointC °F /  -17.8 °C -0.5 °F /  -18.1 °C 3.9 °F /  -15.6 °C
Humitat: Humidity % 54 % 59 %
Wind Speed: WindSpeedKMH mph /  0 km/h - 7.3 mph /  11.7 km/h
RĂ fegues de vent: WindSpeedGustKMH mph /  0 km/h - -
Vent:- - West
Pression baro: PressurehPa in /  0 hPa 1014.8 in /  34361.1 hPa -
Precipitacions: 0.0 in /  0 mm    
Historical Graphs
 
 
Dades de taula per January 16, 2018
Temps Temperatura Punt de rosada Pression baro Vent Wind Speed RĂ fegues de vent Humitat Rainfall Rate (Hourly)
TemperatureC °F /  -17.8 °C DewpointC °F /  -17.8 °C PressurehPa in /  0 hPa Calm     Humidity % HourlyPrecipMM in /  0 mm
00:05 6.8 °F /  -14 °C -0.2 °F /  -17.9 °C 1019.9 in /  34533.8 hPa WSW 4.8 mph /  7.7 km/h 9.7 mph /  15.6 km/h 61 % 0.0 in /  0 mm
00:07 7.2 °F /  -13.8 °C 1.1 °F /  -17.2 °C 1023.9 in /  34669.3 hPa West 5.6 mph /  9 km/h 5.6 mph /  9 km/h 65 % 0.0 in /  0 mm
00:15 6.7 °F /  -14.1 °C -0.3 °F /  -17.9 °C 1019.9 in /  34533.8 hPa WSW 4.8 mph /  7.7 km/h 8.0 mph /  12.9 km/h 61 % 0.0 in /  0 mm
00:25 6.8 °F /  -14 °C -0.2 °F /  -17.9 °C 1019.9 in /  34533.8 hPa WSW 8.0 mph /  12.9 km/h 9.7 mph /  15.6 km/h 61 % 0.0 in /  0 mm
00:35 6.8 °F /  -14 °C -0.2 °F /  -17.9 °C 1019.9 in /  34533.8 hPa WSW 1.6 mph /  2.6 km/h 4.8 mph /  7.7 km/h 61 % 0.0 in /  0 mm
00:45 6.9 °F /  -13.9 °C -0.1 °F /  -17.8 °C 1019.9 in /  34533.8 hPa WSW 4.8 mph /  7.7 km/h 6.4 mph /  10.3 km/h 61 % 0.0 in /  0 mm
00:55 7.0 °F /  -13.9 °C -0.2 °F /  -17.9 °C 1019.9 in /  34533.8 hPa WSW 4.8 mph /  7.7 km/h 8.0 mph /  12.9 km/h 60 % 0.0 in /  0 mm
01:05 7.1 °F /  -13.8 °C -0.2 °F /  -17.9 °C 1019.9 in /  34533.8 hPa WSW 4.8 mph /  7.7 km/h 8.0 mph /  12.9 km/h 60 % 0.0 in /  0 mm
01:15 7.1 °F /  -13.8 °C -0.2 °F /  -17.9 °C 1019.9 in /  34533.8 hPa WSW 3.2 mph /  5.1 km/h 6.4 mph /  10.3 km/h 60 % 0.0 in /  0 mm
01:25 7.3 °F /  -13.7 °C 0.1 °F /  -17.7 °C 1019.9 in /  34533.8 hPa West 4.8 mph /  7.7 km/h 6.4 mph /  10.3 km/h 60 % 0.0 in /  0 mm
01:32 7.1 °F /  -13.8 °C 0.7 °F /  -17.4 °C 1021.9 in /  34601.5 hPa WSW 3.7 mph /  6 km/h 3.7 mph /  6 km/h 64 % 0.0 in /  0 mm
01:35 7.4 °F /  -13.7 °C 0.1 °F /  -17.7 °C 1019.9 in /  34533.8 hPa West 4.8 mph /  7.7 km/h 6.4 mph /  10.3 km/h 60 % 0.0 in /  0 mm
01:45 7.3 °F /  -13.7 °C -0.2 °F /  -17.9 °C 1019.9 in /  34533.8 hPa West 1.6 mph /  2.6 km/h 4.8 mph /  7.7 km/h 59 % 0.0 in /  0 mm
01:55 7.0 °F /  -13.9 °C -0.5 °F /  -18.1 °C 1019.9 in /  34533.8 hPa Calm     59 % 0.0 in /  0 mm
02:05 6.8 °F /  -14 °C -0.4 °F /  -18 °C 1020.9 in /  34567.7 hPa SW 1.6 mph /  2.6 km/h 3.2 mph /  5.1 km/h 60 % 0.0 in /  0 mm
02:15 6.8 °F /  -14 °C -0.4 °F /  -18 °C 1020.9 in /  34567.7 hPa WSW 1.6 mph /  2.6 km/h 6.4 mph /  10.3 km/h 60 % 0.0 in /  0 mm
02:25 7.1 °F /  -13.8 °C -0.2 °F /  -17.9 °C 1020.9 in /  34567.7 hPa West 3.2 mph /  5.1 km/h 8.0 mph /  12.9 km/h 60 % 0.0 in /  0 mm
02:35 7.2 °F /  -13.8 °C -0.1 °F /  -17.8 °C 1020.9 in /  34567.7 hPa West 4.8 mph /  7.7 km/h 6.4 mph /  10.3 km/h 60 % 0.0 in /  0 mm
02:45 7.4 °F /  -13.7 °C 0.1 °F /  -17.7 °C 1020.9 in /  34567.7 hPa WSW 3.2 mph /  5.1 km/h 6.4 mph /  10.3 km/h 60 % 0.0 in /  0 mm
03:05 8.1 °F /  -13.3 °C 0.8 °F /  -17.3 °C 1020.9 in /  34567.7 hPa WSW 4.8 mph /  7.7 km/h 4.8 mph /  7.7 km/h 60 % 0.0 in /  0 mm
03:15 8.5 °F /  -13.1 °C 1.2 °F /  -17.1 °C 1020.9 in /  34567.7 hPa West 1.6 mph /  2.6 km/h 3.2 mph /  5.1 km/h 60 % 0.0 in /  0 mm
03:25 8.6 °F /  -13 °C 1.3 °F /  -17.1 °C 1021.9 in /  34601.5 hPa West 3.2 mph /  5.1 km/h 6.4 mph /  10.3 km/h 60 % 0.0 in /  0 mm
03:35 9.0 °F /  -12.8 °C 1.4 °F /  -17 °C 1021.9 in /  34601.5 hPa West 1.6 mph /  2.6 km/h 6.4 mph /  10.3 km/h 59 % 0.0 in /  0 mm
03:45 9.1 °F /  -12.7 °C 1.5 °F /  -16.9 °C 1021.9 in /  34601.5 hPa West 4.8 mph /  7.7 km/h 9.7 mph /  15.6 km/h 59 % 0.0 in /  0 mm
03:55 9.4 °F /  -12.6 °C 1.8 °F /  -16.8 °C 1021.9 in /  34601.5 hPa WNW 3.2 mph /  5.1 km/h 6.4 mph /  10.3 km/h 59 % 0.0 in /  0 mm
04:05 9.7 °F /  -12.4 °C 2.1 °F /  -16.6 °C 1020.9 in /  34567.7 hPa NW 3.2 mph /  5.1 km/h 4.8 mph /  7.7 km/h 59 % 0.0 in /  0 mm
04:15 10.0 °F /  -12.2 °C 2.1 °F /  -16.6 °C 1020.9 in /  34567.7 hPa West 8.0 mph /  12.9 km/h 8.0 mph /  12.9 km/h 58 % 0.0 in /  0 mm
04:25 10.3 °F /  -12.1 °C 2.4 °F /  -16.4 °C 1020.9 in /  34567.7 hPa WSW 1.6 mph /  2.6 km/h 12.9 mph /  20.8 km/h 58 % 0.0 in /  0 mm
04:35 10.7 °F /  -11.8 °C 2.8 °F /  -16.2 °C 1020.9 in /  34567.7 hPa West 4.8 mph /  7.7 km/h 9.7 mph /  15.6 km/h 58 % 0.0 in /  0 mm
10:36 10.8 °F /  -11.8 °C 2.8 °F /  -16.2 °C 1021.9 in /  34601.5 hPa NW 9.3 mph /  15 km/h 9.3 mph /  15 km/h 58 % 0.0 in /  0 mm
10:42 11.0 °F /  -11.7 °C 3.1 °F /  -16.1 °C 1021.9 in /  34601.5 hPa West 7.4 mph /  11.9 km/h 7.4 mph /  11.9 km/h 58 % 0.0 in /  0 mm
10:58 10.4 °F /  -12 °C 2.0 °F /  -16.7 °C 1021.9 in /  34601.5 hPa SW 7.4 mph /  11.9 km/h 7.4 mph /  11.9 km/h 56 % 0.0 in /  0 mm
11:14 11.5 °F /  -11.4 °C 3.3 °F /  -15.9 °C 1021.9 in /  34601.5 hPa NW 13.0 mph /  20.9 km/h 13.0 mph /  20.9 km/h 57 % 0.0 in /  0 mm
12:02 12.8 °F /  -10.7 °C 4.0 °F /  -15.6 °C 1021.9 in /  34601.5 hPa WNW 7.2 mph /  11.6 km/h 7.2 mph /  11.6 km/h 55 % 0.0 in /  0 mm
12:15 13.3 °F /  -10.4 °C 4.4 °F /  -15.3 °C 1021.9 in /  34601.5 hPa SSW 9.3 mph /  15 km/h 9.3 mph /  15 km/h 55 % 0.0 in /  0 mm
12:22 13.5 °F /  -10.3 °C 4.6 °F /  -15.2 °C 1021.9 in /  34601.5 hPa NW 5.6 mph /  9 km/h 5.6 mph /  9 km/h 55 % 0.0 in /  0 mm
12:52 14.0 °F /  -10 °C 4.8 °F /  -15.1 °C 1019.9 in /  34533.8 hPa WSW 14.8 mph /  23.8 km/h 14.8 mph /  23.8 km/h 54 % 0.0 in /  0 mm
13:14 14.9 °F /  -9.5 °C 5.9 °F /  -14.5 °C 1019.9 in /  34533.8 hPa WSW 5.6 mph /  9 km/h 5.6 mph /  9 km/h 55 % 0.0 in /  0 mm
13:20 15.0 °F /  -9.4 °C 6.0 °F /  -14.4 °C 1019.9 in /  34533.8 hPa WSW 7.4 mph /  11.9 km/h 7.4 mph /  11.9 km/h 55 % 0.0 in /  0 mm
13:41 15.1 °F /  -9.4 °C 5.8 °F /  -14.6 °C 1019.9 in /  34533.8 hPa West 5.6 mph /  9 km/h 5.6 mph /  9 km/h 54 % 0.0 in /  0 mm
14:19 15.3 °F /  -9.3 °C 6.1 °F /  -14.4 °C 1019.9 in /  34533.8 hPa West 9.3 mph /  15 km/h 9.3 mph /  15 km/h 54 % 0.0 in /  0 mm
14:26 15.4 °F /  -9.2 °C 6.1 °F /  -14.4 °C 1019.9 in /  34533.8 hPa WSW 7.4 mph /  11.9 km/h 7.4 mph /  11.9 km/h 54 % 0.0 in /  0 mm
14:46 15.5 °F /  -9.2 °C 6.2 °F /  -14.3 °C 1019.9 in /  34533.8 hPa NNW 9.3 mph /  15 km/h 9.3 mph /  15 km/h 54 % 0.0 in /  0 mm
14:54 15.6 °F /  -9.1 °C 6.3 °F /  -14.3 °C 1018.8 in /  34496.6 hPa NW 7.4 mph /  11.9 km/h 7.4 mph /  11.9 km/h 54 % 0.0 in /  0 mm
15:00 15.4 °F /  -9.2 °C 6.1 °F /  -14.4 °C 1018.8 in /  34496.6 hPa NW 8.7 mph /  14 km/h 8.7 mph /  14 km/h 54 % 0.0 in /  0 mm
15:08 15.6 °F /  -9.1 °C 6.3 °F /  -14.3 °C 1018.8 in /  34496.6 hPa WNW 9.3 mph /  15 km/h 9.3 mph /  15 km/h 54 % 0.0 in /  0 mm
15:44 16.4 °F /  -8.7 °C 7.1 °F /  -13.8 °C 1018.8 in /  34496.6 hPa WSW 1.9 mph /  3.1 km/h 1.9 mph /  3.1 km/h 54 % 0.0 in /  0 mm
16:04 16.5 °F /  -8.6 °C 7.2 °F /  -13.8 °C 1018.8 in /  34496.6 hPa WNW 9.3 mph /  15 km/h 9.3 mph /  15 km/h 54 % 0.0 in /  0 mm
16:18 16.2 °F /  -8.8 °C 6.9 °F /  -13.9 °C 1018.8 in /  34496.6 hPa WNW 6.1 mph /  9.8 km/h 6.1 mph /  9.8 km/h 54 % 0.0 in /  0 mm
16:34 16.1 °F /  -8.8 °C 6.8 °F /  -14 °C 1018.8 in /  34496.6 hPa West 5.6 mph /  9 km/h 5.6 mph /  9 km/h 54 % 0.0 in /  0 mm
17:14 15.5 °F /  -9.2 °C 6.5 °F /  -14.2 °C 1018.8 in /  34496.6 hPa North 3.7 mph /  6 km/h 3.7 mph /  6 km/h 55 % 0.0 in /  0 mm
17:28 15.1 °F /  -9.4 °C 6.1 °F /  -14.4 °C 1018.8 in /  34496.6 hPa WSW 5.6 mph /  9 km/h 5.6 mph /  9 km/h 55 % 0.0 in /  0 mm
17:46 14.4 °F /  -9.8 °C 5.4 °F /  -14.8 °C 1018.8 in /  34496.6 hPa Calm     55 % 0.0 in /  0 mm
17:53 14.1 °F /  -9.9 °C 5.4 °F /  -14.8 °C 1018.8 in /  34496.6 hPa NW 3.7 mph /  6 km/h 3.7 mph /  6 km/h 56 % 0.0 in /  0 mm
18:06 14.1 °F /  -9.9 °C 5.4 °F /  -14.8 °C 1018.8 in /  34496.6 hPa SW 7.4 mph /  11.9 km/h 7.4 mph /  11.9 km/h 56 % 0.0 in /  0 mm
18:12 14.2 °F /  -9.9 °C 5.8 °F /  -14.6 °C 1018.8 in /  34496.6 hPa WNW 7.4 mph /  11.9 km/h 7.4 mph /  11.9 km/h 57 % 0.0 in /  0 mm
18:29 14.0 °F /  -10 °C 5.6 °F /  -14.7 °C 1018.8 in /  34496.6 hPa WSW 7.4 mph /  11.9 km/h 7.4 mph /  11.9 km/h 57 % 0.0 in /  0 mm
19:06 13.8 °F /  -10.1 °C 5.7 °F /  -14.6 °C 1018.8 in /  34496.6 hPa WSW 9.3 mph /  15 km/h 9.3 mph /  15 km/h 58 % 0.0 in /  0 mm
19:35 12.3 °F /  -10.9 °C 5.4 °F /  -14.8 °C 1015.8 in /  34395 hPa WSW 9.7 mph /  15.6 km/h 12.9 mph /  20.8 km/h 63 % 0.0 in /  0 mm
19:45 12.2 °F /  -11 °C 5.6 °F /  -14.7 °C 1015.8 in /  34395 hPa West 8.0 mph /  12.9 km/h 20.9 mph /  33.6 km/h 64 % 0.0 in /  0 mm
19:53 13.8 °F /  -10.1 °C 5.9 °F /  -14.5 °C 1018.8 in /  34496.6 hPa WSW 7.4 mph /  11.9 km/h 7.4 mph /  11.9 km/h 59 % 0.0 in /  0 mm
20:05 12.3 °F /  -10.9 °C 5.7 °F /  -14.6 °C 1015.8 in /  34395 hPa West 11.3 mph /  18.2 km/h 17.7 mph /  28.5 km/h 64 % 0.0 in /  0 mm
20:15 13.7 °F /  -10.2 °C 5.8 °F /  -14.6 °C 1017.8 in /  34462.7 hPa WSW 9.3 mph /  15 km/h 9.3 mph /  15 km/h 59 % 0.0 in /  0 mm
20:25 12.3 °F /  -10.9 °C 5.7 °F /  -14.6 °C 1014.8 in /  34361.1 hPa West 14.5 mph /  23.3 km/h 24.1 mph /  38.8 km/h 64 % 0.0 in /  0 mm
20:35 12.4 °F /  -10.9 °C 5.8 °F /  -14.6 °C 1015.8 in /  34395 hPa West 11.3 mph /  18.2 km/h 22.5 mph /  36.2 km/h 64 % 0.0 in /  0 mm
20:45 12.4 °F /  -10.9 °C 5.8 °F /  -14.6 °C 1015.8 in /  34395 hPa West 9.7 mph /  15.6 km/h 17.7 mph /  28.5 km/h 64 % 0.0 in /  0 mm
20:47 13.5 °F /  -10.3 °C 5.6 °F /  -14.7 °C 1017.8 in /  34462.7 hPa WNW 9.3 mph /  15 km/h 9.3 mph /  15 km/h 59 % 0.0 in /  0 mm
20:55 12.4 °F /  -10.9 °C 5.8 °F /  -14.6 °C 1014.8 in /  34361.1 hPa WSW 14.5 mph /  23.3 km/h 20.9 mph /  33.6 km/h 64 % 0.0 in /  0 mm
20:58 13.3 °F /  -10.4 °C 5.4 °F /  -14.8 °C 1017.8 in /  34462.7 hPa West 7.4 mph /  11.9 km/h 7.4 mph /  11.9 km/h 59 % 0.0 in /  0 mm
21:05 12.4 °F /  -10.9 °C 5.8 °F /  -14.6 °C 1014.8 in /  34361.1 hPa WSW 14.5 mph /  23.3 km/h 14.5 mph /  23.3 km/h 64 % 0.0 in /  0 mm
21:15 12.3 °F /  -10.9 °C 5.7 °F /  -14.6 °C 1014.8 in /  34361.1 hPa WSW 9.7 mph /  15.6 km/h 9.7 mph /  15.6 km/h 64 % 0.0 in /  0 mm
21:17 13.3 °F /  -10.4 °C 5.4 °F /  -14.8 °C 1017.8 in /  34462.7 hPa NW 9.3 mph /  15 km/h 9.3 mph /  15 km/h 59 % 0.0 in /  0 mm
21:25 13.2 °F /  -10.4 °C 5.3 °F /  -14.8 °C 1017.8 in /  34462.7 hPa WSW 7.4 mph /  11.9 km/h 7.4 mph /  11.9 km/h 59 % 0.0 in /  0 mm
21:35 12.4 °F /  -10.9 °C 5.8 °F /  -14.6 °C 1015.8 in /  34395 hPa West 9.7 mph /  15.6 km/h 16.1 mph /  25.9 km/h 64 % 0.0 in /  0 mm
21:45 12.4 °F /  -10.9 °C 5.6 °F /  -14.7 °C 1015.8 in /  34395 hPa West 9.7 mph /  15.6 km/h 27.4 mph /  44.1 km/h 63 % 0.0 in /  0 mm
21:59 12.9 °F /  -10.6 °C 5.3 °F /  -14.8 °C 1017.8 in /  34462.7 hPa WSW 9.3 mph /  15 km/h 9.3 mph /  15 km/h 60 % 0.0 in /  0 mm
22:05 12.6 °F /  -10.8 °C 5.7 °F /  -14.6 °C 1014.8 in /  34361.1 hPa West 11.3 mph /  18.2 km/h 19.3 mph /  31.1 km/h 63 % 0.0 in /  0 mm
22:07 12.7 °F /  -10.7 °C 5.1 °F /  -14.9 °C 1018.8 in /  34496.6 hPa SW 7.4 mph /  11.9 km/h 7.4 mph /  11.9 km/h 60 % 0.0 in /  0 mm
22:15 12.5 °F /  -10.8 °C 5.7 °F /  -14.6 °C 1014.8 in /  34361.1 hPa WSW 11.3 mph /  18.2 km/h 25.7 mph /  41.4 km/h 63 % 0.0 in /  0 mm
22:17 12.7 °F /  -10.7 °C 5.1 °F /  -14.9 °C 1018.8 in /  34496.6 hPa WSW 11.1 mph /  17.9 km/h 11.1 mph /  17.9 km/h 60 % 0.0 in /  0 mm
22:25 12.4 °F /  -10.9 °C 5.3 °F /  -14.8 °C 1014.8 in /  34361.1 hPa WSW 12.9 mph /  20.8 km/h 20.9 mph /  33.6 km/h 62 % 0.0 in /  0 mm
22:35 12.5 °F /  -10.8 °C 5.4 °F /  -14.8 °C 1014.8 in /  34361.1 hPa West 9.7 mph /  15.6 km/h 16.1 mph /  25.9 km/h 62 % 0.0 in /  0 mm
22:45 12.5 °F /  -10.8 °C 5.4 °F /  -14.8 °C 1014.8 in /  34361.1 hPa West 14.5 mph /  23.3 km/h 24.1 mph /  38.8 km/h 62 % 0.0 in /  0 mm
22:56 12.7 °F /  -10.7 °C 5.4 °F /  -14.8 °C 1017.8 in /  34462.7 hPa West 20.6 mph /  33.2 km/h 20.6 mph /  33.2 km/h 61 % 0.0 in /  0 mm
23:00 12.3 °F /  -10.9 °C 5.2 °F /  -14.9 °C 1014.8 in /  34361.1 hPa WSW 9.7 mph /  15.6 km/h 16.1 mph /  25.9 km/h 62 % 0.0 in /  0 mm
23:10 12.3 °F /  -10.9 °C 5.2 °F /  -14.9 °C 1015.8 in /  34395 hPa WSW 9.7 mph /  15.6 km/h 19.3 mph /  31.1 km/h 62 % 0.0 in /  0 mm
23:20 12.3 °F /  -10.9 °C 5.2 °F /  -14.9 °C 1015.8 in /  34395 hPa WSW 14.5 mph /  23.3 km/h 14.5 mph /  23.3 km/h 62 % 0.0 in /  0 mm
23:30 12.2 °F /  -11 °C 5.1 °F /  -14.9 °C 1015.8 in /  34395 hPa WSW 4.8 mph /  7.7 km/h 14.5 mph /  23.3 km/h 62 % 0.0 in /  0 mm
23:40 12.2 °F /  -11 °C 5.1 °F /  -14.9 °C 1015.8 in /  34395 hPa West 9.7 mph /  15.6 km/h 20.9 mph /  33.6 km/h 62 % 0.0 in /  0 mm
23:41 12.3 °F /  -10.9 °C 5.0 °F /  -15 °C 1016.8 in /  34428.8 hPa WSW 14.8 mph /  23.8 km/h 14.8 mph /  23.8 km/h 61 % 0.0 in /  0 mm
23:50 12.2 °F /  -11 °C 5.1 °F /  -14.9 °C 1015.8 in /  34395 hPa West 4.8 mph /  7.7 km/h 17.7 mph /  28.5 km/h 62 % 0.0 in /  0 mm
Meteo Sesrovires
Elogis d' Weather Underground - 1.25 mb

Guio original per  Jim McMurry - jmcmurry@mwt.net Adaptat per a la plantilla per  Wim van der Kuil - Leuven-Template.eu

Trobareu la nostra informacio del temps tambe a:

Weather Underground

AWEKAS